sensor_id;sensor_type;location;lat;lon;timestamp;pressure;altitude;pressure_sealevel;temperature;humidity
56568;BME280;42456;49.956;20.004;2023-08-08T00:01:14;97967.84;;;14.04;87.21
56568;BME280;42456;49.956;20.004;2023-08-08T00:03:40;97973.70;;;14.03;87.04
56568;BME280;42456;49.956;20.004;2023-08-08T00:06:07;97975.46;;;14.03;86.98
56568;BME280;42456;49.956;20.004;2023-08-08T00:08:36;97979.31;;;14.03;87.05
56568;BME280;42456;49.956;20.004;2023-08-08T00:11:03;97978.46;;;14.03;86.95
56568;BME280;42456;49.956;20.004;2023-08-08T00:13:29;97977.30;;;14.02;87.04
56568;BME280;42456;49.956;20.004;2023-08-08T00:15:56;97975.52;;;14.02;86.81
56568;BME280;42456;49.956;20.004;2023-08-08T00:18:23;97978.20;;;14.01;86.77
56568;BME280;42456;49.956;20.004;2023-08-08T00:20:50;97983.83;;;14.00;86.78
56568;BME280;42456;49.956;20.004;2023-08-08T00:23:17;97977.27;;;14.00;86.72
56568;BME280;42456;49.956;20.004;2023-08-08T00:25:44;97979.48;;;13.99;86.76
56568;BME280;42456;49.956;20.004;2023-08-08T00:28:17;97983.73;;;13.99;86.76
56568;BME280;42456;49.956;20.004;2023-08-08T00:30:44;97985.27;;;13.99;86.62
56568;BME280;42456;49.956;20.004;2023-08-08T00:33:11;97981.85;;;13.97;86.56
56568;BME280;42456;49.956;20.004;2023-08-08T00:35:38;97989.80;;;13.97;86.54
56568;BME280;42456;49.956;20.004;2023-08-08T00:38:05;97987.30;;;13.96;86.37
56568;BME280;42456;49.956;20.004;2023-08-08T00:40:32;97990.73;;;13.93;86.38
56568;BME280;42456;49.956;20.004;2023-08-08T00:42:59;97992.69;;;13.91;86.31
56568;BME280;42456;49.956;20.004;2023-08-08T00:45:26;97995.10;;;13.88;86.25
56568;BME280;42456;49.956;20.004;2023-08-08T00:47:53;97994.92;;;13.86;86.18
56568;BME280;42456;49.956;20.004;2023-08-08T00:50:20;97995.64;;;13.84;86.33
56568;BME280;42456;49.956;20.004;2023-08-08T00:52:48;97996.84;;;13.82;86.32
56568;BME280;42456;49.956;20.004;2023-08-08T00:55:15;98001.13;;;13.81;86.26
56568;BME280;42456;49.956;20.004;2023-08-08T00:57:43;98006.51;;;13.79;86.30
56568;BME280;42456;49.956;20.004;2023-08-08T01:00:10;98005.40;;;13.78;86.31
56568;BME280;42456;49.956;20.004;2023-08-08T01:02:38;98011.23;;;13.76;86.35
56568;BME280;42456;49.956;20.004;2023-08-08T01:05:06;98017.00;;;13.75;86.39
56568;BME280;42456;49.956;20.004;2023-08-08T01:07:52;98026.29;;;13.73;86.42
56568;BME280;42456;49.956;20.004;2023-08-08T01:10:24;98029.85;;;13.70;86.31
56568;BME280;42456;49.956;20.004;2023-08-08T01:13:00;98029.97;;;13.68;86.39
56568;BME280;42456;49.956;20.004;2023-08-08T01:15:29;98034.11;;;13.66;86.48
56568;BME280;42456;49.956;20.004;2023-08-08T01:18:06;98034.77;;;13.65;86.51
56568;BME280;42456;49.956;20.004;2023-08-08T01:20:34;98033.98;;;13.64;86.59
56568;BME280;42456;49.956;20.004;2023-08-08T01:25:40;98039.33;;;13.61;86.69
56568;BME280;42456;49.956;20.004;2023-08-08T01:28:08;98037.36;;;13.59;86.64
56568;BME280;42456;49.956;20.004;2023-08-08T01:30:35;98040.14;;;13.59;86.71
56568;BME280;42456;49.956;20.004;2023-08-08T01:33:02;98039.86;;;13.57;86.70
56568;BME280;42456;49.956;20.004;2023-08-08T01:35:32;98041.91;;;13.56;86.68
56568;BME280;42456;49.956;20.004;2023-08-08T01:38:11;98038.66;;;13.55;86.58
56568;BME280;42456;49.956;20.004;2023-08-08T01:40:41;98039.70;;;13.54;86.62
56568;BME280;42456;49.956;20.004;2023-08-08T01:43:09;98040.37;;;13.52;86.59
56568;BME280;42456;49.956;20.004;2023-08-08T01:45:38;98039.35;;;13.52;86.37
56568;BME280;42456;49.956;20.004;2023-08-08T01:48:08;98039.87;;;13.51;86.33
56568;BME280;42456;49.956;20.004;2023-08-08T01:50:37;98041.29;;;13.49;86.15
56568;BME280;42456;49.956;20.004;2023-08-08T01:53:04;98041.24;;;13.47;85.94
56568;BME280;42456;49.956;20.004;2023-08-08T01:55:30;98041.96;;;13.44;86.04
56568;BME280;42456;49.956;20.004;2023-08-08T01:57:58;98044.08;;;13.42;85.94
56568;BME280;42456;49.956;20.004;2023-08-08T02:00:25;98044.44;;;13.41;85.68
56568;BME280;42456;49.956;20.004;2023-08-08T02:02:52;98046.77;;;13.38;85.73
56568;BME280;42456;49.956;20.004;2023-08-08T02:05:19;98044.55;;;13.35;85.67
56568;BME280;42456;49.956;20.004;2023-08-08T02:07:46;98045.19;;;13.34;85.29
56568;BME280;42456;49.956;20.004;2023-08-08T02:10:13;98042.83;;;13.31;85.38
56568;BME280;42456;49.956;20.004;2023-08-08T02:12:40;98046.84;;;13.28;85.27
56568;BME280;42456;49.956;20.004;2023-08-08T02:15:07;98049.33;;;13.26;85.08
56568;BME280;42456;49.956;20.004;2023-08-08T02:17:34;98050.88;;;13.22;84.97
56568;BME280;42456;49.956;20.004;2023-08-08T02:20:01;98052.34;;;13.19;84.90
56568;BME280;42456;49.956;20.004;2023-08-08T02:22:27;98050.03;;;13.16;84.77
56568;BME280;42456;49.956;20.004;2023-08-08T02:24:54;98051.68;;;13.14;84.71
56568;BME280;42456;49.956;20.004;2023-08-08T02:27:21;98055.89;;;13.12;84.44
56568;BME280;42456;49.956;20.004;2023-08-08T02:29:48;98057.52;;;13.10;84.31
56568;BME280;42456;49.956;20.004;2023-08-08T02:32:15;98060.65;;;13.08;84.37
56568;BME280;42456;49.956;20.004;2023-08-08T02:34:41;98064.27;;;13.04;84.26
56568;BME280;42456;49.956;20.004;2023-08-08T02:37:08;98066.27;;;13.01;84.24
56568;BME280;42456;49.956;20.004;2023-08-08T02:39:35;98063.94;;;12.98;84.21
56568;BME280;42456;49.956;20.004;2023-08-08T02:42:02;98070.13;;;12.96;84.26
56568;BME280;42456;49.956;20.004;2023-08-08T02:44:29;98072.61;;;12.94;84.27
56568;BME280;42456;49.956;20.004;2023-08-08T02:46:56;98071.35;;;12.92;84.29
56568;BME280;42456;49.956;20.004;2023-08-08T02:49:23;98068.80;;;12.89;84.02
56568;BME280;42456;49.956;20.004;2023-08-08T02:51:50;98076.00;;;12.87;84.03
56568;BME280;42456;49.956;20.004;2023-08-08T02:54:16;98076.77;;;12.85;84.07
56568;BME280;42456;49.956;20.004;2023-08-08T02:56:43;98079.63;;;12.81;83.92
56568;BME280;42456;49.956;20.004;2023-08-08T02:59:10;98080.25;;;12.78;83.94
56568;BME280;42456;49.956;20.004;2023-08-08T03:01:37;98082.94;;;12.75;83.86
56568;BME280;42456;49.956;20.004;2023-08-08T03:04:06;98087.56;;;12.72;83.94
56568;BME280;42456;49.956;20.004;2023-08-08T03:06:33;98090.74;;;12.70;83.86
56568;BME280;42456;49.956;20.004;2023-08-08T03:08:59;98093.84;;;12.68;83.93
56568;BME280;42456;49.956;20.004;2023-08-08T03:11:26;98093.80;;;12.63;83.85
56568;BME280;42456;49.956;20.004;2023-08-08T03:13:53;98091.63;;;12.60;83.69
56568;BME280;42456;49.956;20.004;2023-08-08T03:16:20;98097.45;;;12.58;83.74
56568;BME280;42456;49.956;20.004;2023-08-08T03:18:47;98099.17;;;12.56;83.62
56568;BME280;42456;49.956;20.004;2023-08-08T03:21:14;98101.41;;;12.53;83.60
56568;BME280;42456;49.956;20.004;2023-08-08T03:23:40;98101.81;;;12.52;83.34
56568;BME280;42456;49.956;20.004;2023-08-08T03:26:07;98110.52;;;12.51;83.49
56568;BME280;42456;49.956;20.004;2023-08-08T03:28:34;98111.27;;;12.50;83.49
56568;BME280;42456;49.956;20.004;2023-08-08T03:31:00;98112.89;;;12.50;83.47
56568;BME280;42456;49.956;20.004;2023-08-08T03:33:29;98118.76;;;12.51;83.53
56568;BME280;42456;49.956;20.004;2023-08-08T03:35:56;98121.20;;;12.53;83.46
56568;BME280;42456;49.956;20.004;2023-08-08T03:38:23;98119.23;;;12.54;83.37
56568;BME280;42456;49.956;20.004;2023-08-08T03:40:50;98120.11;;;12.56;83.47
56568;BME280;42456;49.956;20.004;2023-08-08T03:43:17;98122.34;;;12.58;83.41
56568;BME280;42456;49.956;20.004;2023-08-08T03:45:44;98125.84;;;12.59;83.35
56568;BME280;42456;49.956;20.004;2023-08-08T03:48:25;98135.54;;;12.61;83.30
56568;BME280;42456;49.956;20.004;2023-08-08T03:50:52;98138.23;;;12.65;83.32
56568;BME280;42456;49.956;20.004;2023-08-08T03:53:19;98147.42;;;12.68;83.37
56568;BME280;42456;49.956;20.004;2023-08-08T03:55:46;98148.74;;;12.71;83.10
56568;BME280;42456;49.956;20.004;2023-08-08T03:58:13;98155.00;;;12.74;83.18
56568;BME280;42456;49.956;20.004;2023-08-08T04:00:40;98153.83;;;12.79;83.26
56568;BME280;42456;49.956;20.004;2023-08-08T04:03:13;98155.52;;;12.85;83.10
56568;BME280;42456;49.956;20.004;2023-08-08T04:05:45;98160.52;;;12.91;82.94
56568;BME280;42456;49.956;20.004;2023-08-08T04:08:15;98165.59;;;12.98;83.13
56568;BME280;42456;49.956;20.004;2023-08-08T04:10:43;98167.95;;;13.05;83.19
56568;BME280;42456;49.956;20.004;2023-08-08T04:13:13;98169.04;;;13.11;83.22
56568;BME280;42456;49.956;20.004;2023-08-08T04:15:40;98172.08;;;13.18;83.11
56568;BME280;42456;49.956;20.004;2023-08-08T04:18:07;98171.42;;;13.26;83.11
56568;BME280;42456;49.956;20.004;2023-08-08T04:20:34;98176.59;;;13.36;83.07
56568;BME280;42456;49.956;20.004;2023-08-08T04:23:01;98177.86;;;13.47;83.11
56568;BME280;42456;49.956;20.004;2023-08-08T04:25:28;98182.60;;;13.61;82.92
56568;BME280;42456;49.956;20.004;2023-08-08T04:27:55;98184.54;;;13.74;82.56
56568;BME280;42456;49.956;20.004;2023-08-08T04:30:22;98187.47;;;13.87;82.48
56568;BME280;42456;49.956;20.004;2023-08-08T04:32:50;98191.84;;;13.99;82.27
56568;BME280;42456;49.956;20.004;2023-08-08T04:35:17;98194.05;;;14.08;81.88
56568;BME280;42456;49.956;20.004;2023-08-08T04:37:44;98204.34;;;14.12;81.83
56568;BME280;42456;49.956;20.004;2023-08-08T04:40:11;98205.40;;;14.21;81.38
56568;BME280;42456;49.956;20.004;2023-08-08T04:42:38;98205.35;;;14.28;81.36
56568;BME280;42456;49.956;20.004;2023-08-08T04:45:06;98206.30;;;14.39;81.25
56568;BME280;42456;49.956;20.004;2023-08-08T04:47:33;98208.22;;;14.57;80.97
56568;BME280;42456;49.956;20.004;2023-08-08T04:50:00;98206.73;;;14.76;80.50
56568;BME280;42456;49.956;20.004;2023-08-08T04:52:27;98211.73;;;14.93;80.25
56568;BME280;42456;49.956;20.004;2023-08-08T04:54:54;98212.02;;;15.13;79.88
56568;BME280;42456;49.956;20.004;2023-08-08T04:57:21;98211.45;;;15.34;79.43
56568;BME280;42456;49.956;20.004;2023-08-08T04:59:48;98220.85;;;15.56;79.04
56568;BME280;42456;49.956;20.004;2023-08-08T05:02:15;98223.70;;;15.79;78.64
56568;BME280;42456;49.956;20.004;2023-08-08T05:04:43;98228.13;;;15.98;78.19
56568;BME280;42456;49.956;20.004;2023-08-08T05:07:09;98231.52;;;16.18;77.69
56568;BME280;42456;49.956;20.004;2023-08-08T05:09:36;98233.27;;;16.38;77.13
56568;BME280;42456;49.956;20.004;2023-08-08T05:12:04;98232.11;;;16.47;76.71
56568;BME280;42456;49.956;20.004;2023-08-08T05:14:32;98235.31;;;16.49;76.16
56568;BME280;42456;49.956;20.004;2023-08-08T05:16:58;98236.88;;;16.45;75.68
56568;BME280;42456;49.956;20.004;2023-08-08T05:19:25;98240.51;;;16.40;75.36
56568;BME280;42456;49.956;20.004;2023-08-08T05:21:52;98243.42;;;16.32;74.95
56568;BME280;42456;49.956;20.004;2023-08-08T05:24:20;98247.65;;;16.24;74.74
56568;BME280;42456;49.956;20.004;2023-08-08T05:26:46;98253.37;;;16.18;74.72
56568;BME280;42456;49.956;20.004;2023-08-08T05:29:13;98257.08;;;16.12;74.67
56568;BME280;42456;49.956;20.004;2023-08-08T05:31:43;98257.41;;;16.08;74.74
56568;BME280;42456;49.956;20.004;2023-08-08T05:34:10;98256.59;;;16.05;74.84
56568;BME280;42456;49.956;20.004;2023-08-08T05:36:37;98260.23;;;16.00;74.67
56568;BME280;42456;49.956;20.004;2023-08-08T05:39:04;98265.36;;;15.96;74.65
56568;BME280;42456;49.956;20.004;2023-08-08T05:41:31;98270.69;;;15.95;74.75
56568;BME280;42456;49.956;20.004;2023-08-08T05:43:57;98270.14;;;16.03;74.81
56568;BME280;42456;49.956;20.004;2023-08-08T05:46:24;98271.21;;;16.33;74.85
56568;BME280;42456;49.956;20.004;2023-08-08T05:48:51;98268.81;;;16.59;74.92
56568;BME280;42456;49.956;20.004;2023-08-08T05:51:18;98264.80;;;16.97;74.47
56568;BME280;42456;49.956;20.004;2023-08-08T05:53:45;98266.15;;;17.21;74.02
56568;BME280;42456;49.956;20.004;2023-08-08T05:56:12;98269.15;;;17.18;73.16
56568;BME280;42456;49.956;20.004;2023-08-08T05:58:38;98272.33;;;17.10;72.44
56568;BME280;42456;49.956;20.004;2023-08-08T06:01:05;98273.54;;;17.07;72.18
56568;BME280;42456;49.956;20.004;2023-08-08T06:03:36;98275.79;;;17.07;72.19
56568;BME280;42456;49.956;20.004;2023-08-08T06:06:04;98269.65;;;17.07;72.09
56568;BME280;42456;49.956;20.004;2023-08-08T06:08:33;98274.32;;;17.09;72.18
56568;BME280;42456;49.956;20.004;2023-08-08T06:11:01;98269.72;;;17.13;71.88
56568;BME280;42456;49.956;20.004;2023-08-08T06:13:27;98268.89;;;17.23;71.90
56568;BME280;42456;49.956;20.004;2023-08-08T06:15:54;98266.85;;;17.41;71.70
56568;BME280;42456;49.956;20.004;2023-08-08T06:18:21;98264.20;;;17.56;71.40
56568;BME280;42456;49.956;20.004;2023-08-08T06:20:48;98265.40;;;17.58;71.03
56568;BME280;42456;49.956;20.004;2023-08-08T06:23:15;98262.45;;;17.58;70.82
56568;BME280;42456;49.956;20.004;2023-08-08T06:25:42;98265.27;;;17.60;70.42
56568;BME280;42456;49.956;20.004;2023-08-08T06:28:09;98264.65;;;17.61;69.89
56568;BME280;42456;49.956;20.004;2023-08-08T06:30:36;98258.46;;;17.56;69.53
56568;BME280;42456;49.956;20.004;2023-08-08T06:33:03;98258.23;;;17.48;69.65
56568;BME280;42456;49.956;20.004;2023-08-08T06:35:30;98259.09;;;17.55;69.92
56568;BME280;42456;49.956;20.004;2023-08-08T06:37:57;98255.58;;;17.70;69.92
56568;BME280;42456;49.956;20.004;2023-08-08T06:40:24;98256.95;;;17.88;70.29
56568;BME280;42456;49.956;20.004;2023-08-08T06:42:51;98251.21;;;18.08;69.90
56568;BME280;42456;49.956;20.004;2023-08-08T06:45:18;98254.94;;;18.30;68.74
56568;BME280;42456;49.956;20.004;2023-08-08T06:47:45;98255.44;;;18.57;68.44
56568;BME280;42456;49.956;20.004;2023-08-08T06:50:13;98249.81;;;18.85;67.64
56568;BME280;42456;49.956;20.004;2023-08-08T06:52:39;98254.48;;;19.00;66.97
56568;BME280;42456;49.956;20.004;2023-08-08T06:55:07;98254.60;;;19.15;66.37
56568;BME280;42456;49.956;20.004;2023-08-08T06:57:34;98254.42;;;19.28;65.80
56568;BME280;42456;49.956;20.004;2023-08-08T07:00:02;98251.02;;;19.30;65.24
56568;BME280;42456;49.956;20.004;2023-08-08T07:02:32;98248.30;;;19.38;64.76
56568;BME280;42456;49.956;20.004;2023-08-08T07:04:59;98254.96;;;19.52;64.46
56568;BME280;42456;49.956;20.004;2023-08-08T07:07:26;98250.05;;;19.54;62.54
56568;BME280;42456;49.956;20.004;2023-08-08T07:09:53;98249.23;;;19.34;61.78
56568;BME280;42456;49.956;20.004;2023-08-08T07:12:19;98253.71;;;19.04;61.42
56568;BME280;42456;49.956;20.004;2023-08-08T07:14:47;98252.19;;;18.77;61.96
56568;BME280;42456;49.956;20.004;2023-08-08T07:17:14;98253.10;;;18.70;62.82
56568;BME280;42456;49.956;20.004;2023-08-08T07:19:41;98250.66;;;18.81;63.20
56568;BME280;42456;49.956;20.004;2023-08-08T07:22:08;98252.25;;;18.92;63.51
56568;BME280;42456;49.956;20.004;2023-08-08T07:24:35;98246.08;;;19.06;63.52
56568;BME280;42456;49.956;20.004;2023-08-08T07:27:02;98250.31;;;19.13;62.92
56568;BME280;42456;49.956;20.004;2023-08-08T07:29:30;98252.20;;;19.19;62.49
56568;BME280;42456;49.956;20.004;2023-08-08T07:31:57;98252.96;;;19.31;62.65
56568;BME280;42456;49.956;20.004;2023-08-08T07:34:25;98254.63;;;19.44;62.54
56568;BME280;42456;49.956;20.004;2023-08-08T07:36:52;98252.16;;;19.57;61.98
56568;BME280;42456;49.956;20.004;2023-08-08T07:39:19;98249.06;;;19.75;61.73
56568;BME280;42456;49.956;20.004;2023-08-08T07:41:46;98246.48;;;19.97;62.21
56568;BME280;42456;49.956;20.004;2023-08-08T07:44:13;98247.42;;;19.98;61.25
56568;BME280;42456;49.956;20.004;2023-08-08T07:46:41;98247.83;;;19.98;60.32
56568;BME280;42456;49.956;20.004;2023-08-08T07:49:08;98246.02;;;19.81;59.57
56568;BME280;42456;49.956;20.004;2023-08-08T07:51:36;98240.16;;;19.77;60.05
56568;BME280;42456;49.956;20.004;2023-08-08T07:54:03;98239.16;;;19.88;60.15
56568;BME280;42456;49.956;20.004;2023-08-08T07:56:32;98236.50;;;20.06;60.20
56568;BME280;42456;49.956;20.004;2023-08-08T07:58:58;98238.70;;;20.26;60.30
56568;BME280;42456;49.956;20.004;2023-08-08T08:01:26;98237.26;;;20.42;59.54
56568;BME280;42456;49.956;20.004;2023-08-08T08:03:54;98235.58;;;20.59;59.00
56568;BME280;42456;49.956;20.004;2023-08-08T08:06:21;98235.19;;;20.80;58.60
56568;BME280;42456;49.956;20.004;2023-08-08T08:08:48;98229.98;;;20.97;57.96
56568;BME280;42456;49.956;20.004;2023-08-08T08:11:15;98231.78;;;21.13;57.65
56568;BME280;42456;49.956;20.004;2023-08-08T08:13:43;98231.47;;;21.27;57.25
56568;BME280;42456;49.956;20.004;2023-08-08T08:16:10;98234.59;;;21.40;56.52
56568;BME280;42456;49.956;20.004;2023-08-08T08:18:37;98237.07;;;21.45;55.70
56568;BME280;42456;49.956;20.004;2023-08-08T08:21:04;98237.37;;;21.47;55.53
56568;BME280;42456;49.956;20.004;2023-08-08T08:23:31;98231.71;;;21.51;55.31
56568;BME280;42456;49.956;20.004;2023-08-08T08:25:59;98228.89;;;21.53;55.36
56568;BME280;42456;49.956;20.004;2023-08-08T08:28:26;98236.16;;;21.54;55.25
56568;BME280;42456;49.956;20.004;2023-08-08T08:30:53;98234.77;;;21.62;54.59
56568;BME280;42456;49.956;20.004;2023-08-08T08:33:20;98239.88;;;21.59;54.09
56568;BME280;42456;49.956;20.004;2023-08-08T08:35:48;98242.77;;;21.58;53.92
56568;BME280;42456;49.956;20.004;2023-08-08T08:38:15;98236.85;;;21.44;52.81
56568;BME280;42456;49.956;20.004;2023-08-08T08:40:42;98242.92;;;21.21;51.92
56568;BME280;42456;49.956;20.004;2023-08-08T08:43:13;98244.64;;;21.04;53.12
56568;BME280;42456;49.956;20.004;2023-08-08T08:45:42;98245.84;;;21.16;54.45
56568;BME280;42456;49.956;20.004;2023-08-08T08:48:10;98241.09;;;21.26;53.54
56568;BME280;42456;49.956;20.004;2023-08-08T08:50:38;98237.33;;;21.26;52.63
56568;BME280;42456;49.956;20.004;2023-08-08T08:53:06;98237.05;;;21.22;52.33
56568;BME280;42456;49.956;20.004;2023-08-08T08:55:33;98236.79;;;21.27;52.44
56568;BME280;42456;49.956;20.004;2023-08-08T08:58:01;98239.38;;;21.38;52.92
56568;BME280;42456;49.956;20.004;2023-08-08T09:00:30;98237.31;;;21.55;53.72
56568;BME280;42456;49.956;20.004;2023-08-08T09:02:58;98243.48;;;21.67;53.50
56568;BME280;42456;49.956;20.004;2023-08-08T09:05:26;98244.98;;;21.66;52.43
56568;BME280;42456;49.956;20.004;2023-08-08T09:07:53;98244.05;;;21.54;52.01
56568;BME280;42456;49.956;20.004;2023-08-08T09:10:20;98237.73;;;21.37;52.19
56568;BME280;42456;49.956;20.004;2023-08-08T09:12:49;98236.80;;;21.25;52.03
56568;BME280;42456;49.956;20.004;2023-08-08T09:15:16;98236.23;;;21.16;52.48
56568;BME280;42456;49.956;20.004;2023-08-08T09:17:44;98233.77;;;21.08;52.50
56568;BME280;42456;49.956;20.004;2023-08-08T09:20:16;98233.65;;;21.14;52.74
56568;BME280;42456;49.956;20.004;2023-08-08T09:22:43;98234.25;;;21.20;53.23
56568;BME280;42456;49.956;20.004;2023-08-08T09:25:11;98231.77;;;21.15;52.33
56568;BME280;42456;49.956;20.004;2023-08-08T09:27:40;98233.10;;;21.14;52.16
56568;BME280;42456;49.956;20.004;2023-08-08T09:30:09;98232.10;;;21.13;51.67
56568;BME280;42456;49.956;20.004;2023-08-08T09:32:37;98232.20;;;21.09;51.28
56568;BME280;42456;49.956;20.004;2023-08-08T09:35:05;98239.19;;;21.02;50.65
56568;BME280;42456;49.956;20.004;2023-08-08T09:37:37;98238.89;;;20.92;49.62
56568;BME280;42456;49.956;20.004;2023-08-08T09:40:05;98239.84;;;20.86;49.84
56568;BME280;42456;49.956;20.004;2023-08-08T09:42:35;98242.09;;;20.91;50.13
56568;BME280;42456;49.956;20.004;2023-08-08T09:45:03;98239.91;;;20.96;50.94
56568;BME280;42456;49.956;20.004;2023-08-08T09:47:30;98237.71;;;20.93;50.86
56568;BME280;42456;49.956;20.004;2023-08-08T09:50:02;98235.78;;;20.88;50.67
56568;BME280;42456;49.956;20.004;2023-08-08T09:52:33;98228.58;;;20.90;50.28
56568;BME280;42456;49.956;20.004;2023-08-08T09:55:01;98222.77;;;21.03;51.21
56568;BME280;42456;49.956;20.004;2023-08-08T09:57:29;98218.58;;;21.13;50.58
56568;BME280;42456;49.956;20.004;2023-08-08T09:59:57;98218.77;;;21.22;50.92
56568;BME280;42456;49.956;20.004;2023-08-08T10:02:24;98216.48;;;21.24;49.68
56568;BME280;42456;49.956;20.004;2023-08-08T10:04:52;98214.71;;;21.21;49.09
56568;BME280;42456;49.956;20.004;2023-08-08T10:07:22;98215.34;;;21.18;49.44
56568;BME280;42456;49.956;20.004;2023-08-08T10:09:49;98218.20;;;21.11;49.30
56568;BME280;42456;49.956;20.004;2023-08-08T10:12:17;98220.42;;;21.03;49.88
56568;BME280;42456;49.956;20.004;2023-08-08T10:14:44;98217.69;;;21.04;50.08
56568;BME280;42456;49.956;20.004;2023-08-08T10:17:15;98214.16;;;21.04;50.01
56568;BME280;42456;49.956;20.004;2023-08-08T10:19:54;98213.06;;;21.08;50.74
56568;BME280;42456;49.956;20.004;2023-08-08T10:22:22;98212.10;;;21.13;50.38
56568;BME280;42456;49.956;20.004;2023-08-08T10:24:52;98212.86;;;21.14;50.26
56568;BME280;42456;49.956;20.004;2023-08-08T10:27:35;98207.68;;;21.20;50.44
56568;BME280;42456;49.956;20.004;2023-08-08T10:30:07;98209.84;;;21.23;50.82
56568;BME280;42456;49.956;20.004;2023-08-08T10:32:43;98207.81;;;21.24;51.03
56568;BME280;42456;49.956;20.004;2023-08-08T10:35:11;98209.70;;;21.21;50.34
56568;BME280;42456;49.956;20.004;2023-08-08T10:37:39;98205.34;;;21.19;50.00
56568;BME280;42456;49.956;20.004;2023-08-08T10:40:07;98203.70;;;21.19;49.50
56568;BME280;42456;49.956;20.004;2023-08-08T10:42:43;98204.08;;;21.22;49.57
56568;BME280;42456;49.956;20.004;2023-08-08T10:45:13;98200.78;;;21.24;49.45
56568;BME280;42456;49.956;20.004;2023-08-08T10:47:41;98202.23;;;21.28;49.73
56568;BME280;42456;49.956;20.004;2023-08-08T10:50:16;98213.39;;;21.32;49.92
56568;BME280;42456;49.956;20.004;2023-08-08T10:57:55;98206.47;;;20.99;49.99
56568;BME280;42456;49.956;20.004;2023-08-08T11:00:27;98206.33;;;20.88;50.56
56568;BME280;42456;49.956;20.004;2023-08-08T11:02:54;98210.59;;;20.78;50.72
56568;BME280;42456;49.956;20.004;2023-08-08T11:05:23;98204.38;;;20.69;51.11
56568;BME280;42456;49.956;20.004;2023-08-08T11:07:50;98208.46;;;20.63;51.31
56568;BME280;42456;49.956;20.004;2023-08-08T11:10:18;98209.86;;;20.66;51.72
56568;BME280;42456;49.956;20.004;2023-08-08T11:12:59;98204.60;;;20.71;51.80
56568;BME280;42456;49.956;20.004;2023-08-08T11:15:28;98208.27;;;20.71;51.67
56568;BME280;42456;49.956;20.004;2023-08-08T11:17:56;98204.66;;;20.77;52.09
56568;BME280;42456;49.956;20.004;2023-08-08T11:20:24;98198.37;;;20.87;52.53
56568;BME280;42456;49.956;20.004;2023-08-08T11:22:53;98198.90;;;20.91;52.19
56568;BME280;42456;49.956;20.004;2023-08-08T11:25:21;98199.98;;;20.92;51.63
56568;BME280;42456;49.956;20.004;2023-08-08T11:27:50;98195.38;;;20.91;51.15
56568;BME280;42456;49.956;20.004;2023-08-08T11:30:18;98196.01;;;20.96;50.83
56568;BME280;42456;49.956;20.004;2023-08-08T11:32:47;98200.83;;;21.02;50.78
56568;BME280;42456;49.956;20.004;2023-08-08T11:35:34;98196.52;;;21.04;50.36
56568;BME280;42456;49.956;20.004;2023-08-08T11:38:02;98193.38;;;21.06;50.44
56568;BME280;42456;49.956;20.004;2023-08-08T11:40:31;98199.65;;;21.15;50.47
56568;BME280;42456;49.956;20.004;2023-08-08T11:42:59;98197.94;;;21.28;50.32
56568;BME280;42456;49.956;20.004;2023-08-08T11:45:26;98195.35;;;21.27;49.60
56568;BME280;42456;49.956;20.004;2023-08-08T11:47:55;98194.70;;;21.21;49.70
56568;BME280;42456;49.956;20.004;2023-08-08T11:50:24;98192.21;;;21.19;49.48
56568;BME280;42456;49.956;20.004;2023-08-08T11:52:53;98196.64;;;21.23;49.06
56568;BME280;42456;49.956;20.004;2023-08-08T11:55:26;98196.45;;;21.30;49.40
56568;BME280;42456;49.956;20.004;2023-08-08T11:57:55;98199.34;;;21.40;49.65
56568;BME280;42456;49.956;20.004;2023-08-08T12:00:30;98197.89;;;21.48;49.03
56568;BME280;42456;49.956;20.004;2023-08-08T12:03:01;98199.61;;;21.47;48.22
56568;BME280;42456;49.956;20.004;2023-08-08T12:05:36;98206.32;;;21.48;48.76
56568;BME280;42456;49.956;20.004;2023-08-08T12:08:06;98212.28;;;21.47;47.97
56568;BME280;42456;49.956;20.004;2023-08-08T12:10:33;98219.77;;;21.37;47.76
56568;BME280;42456;49.956;20.004;2023-08-08T12:13:01;98226.67;;;21.21;47.78
56568;BME280;42456;49.956;20.004;2023-08-08T12:15:35;98237.30;;;21.03;47.96
56568;BME280;42456;49.956;20.004;2023-08-08T12:18:03;98238.61;;;20.84;48.27
56568;BME280;42456;49.956;20.004;2023-08-08T12:20:31;98229.92;;;20.67;48.77
56568;BME280;42456;49.956;20.004;2023-08-08T12:22:59;98226.98;;;20.57;49.19
56568;BME280;42456;49.956;20.004;2023-08-08T12:25:27;98229.05;;;20.47;49.85
56568;BME280;42456;49.956;20.004;2023-08-08T12:27:54;98231.41;;;20.36;50.34
56568;BME280;42456;49.956;20.004;2023-08-08T12:30:21;98244.48;;;20.20;51.12
56568;BME280;42456;49.956;20.004;2023-08-08T12:32:50;98263.96;;;20.01;51.91
56568;BME280;42456;49.956;20.004;2023-08-08T12:35:17;98295.84;;;19.75;53.15
56568;BME280;42456;49.956;20.004;2023-08-08T12:37:44;98306.38;;;19.41;54.31
56568;BME280;42456;49.956;20.004;2023-08-08T12:40:12;98292.45;;;19.12;55.66
56568;BME280;42456;49.956;20.004;2023-08-08T12:42:39;98291.34;;;18.87;56.60
56568;BME280;42456;49.956;20.004;2023-08-08T12:45:07;98283.09;;;18.74;57.69
56568;BME280;42456;49.956;20.004;2023-08-08T12:47:34;98279.48;;;18.67;58.79
56568;BME280;42456;49.956;20.004;2023-08-08T12:50:05;98270.70;;;18.70;59.66
56568;BME280;42456;49.956;20.004;2023-08-08T12:52:32;98269.80;;;18.79;60.37
56568;BME280;42456;49.956;20.004;2023-08-08T12:54:59;98259.73;;;18.88;60.75
56568;BME280;42456;49.956;20.004;2023-08-08T12:57:26;98255.86;;;18.96;61.46
56568;BME280;42456;49.956;20.004;2023-08-08T12:59:53;98252.00;;;19.07;62.19
56568;BME280;42456;49.956;20.004;2023-08-08T13:02:21;98247.59;;;19.13;62.51